»·PEaware :: UAL2782 KABQ-KPHX

UAL2782 :: KABQ-KPHX

FLIGHT INFORMATION

Flight Status: Arrived
Operator:
United Airlines
More flights by this operator :: More flights under this callsign
Pilot: Anonymous 15639 (15639)
Aircraft: BOEING 737-800
(B738)
More flights by this aircraft type
Origin: KABQ Albuquerque Intl Sunport
United States
Destination: KPHX Phoenix Sky Harbor Intl
United States
More flights between these airports :: More routes between these airports
Route: RDRNR3 ZUN EAGUL6
File this flight plan on PilotEdge
Remarks:
Altitude:
(Current/Filed)
38,000ft
Speed:
(Current/Filed)
454kts
Departed: 05-Sep-18 12:07 PM
Arrived: 05-Sep-18 01:02 PM
Distance/Time
Traveled:
284nm/0:55
Distance/Time
To Go:
Arrived

Flight Plot

Page will automatically refresh every two minutes.


Map Options




Map Legend


Flown Route
Filed Route
Departure Airport
Arrival Airport
Navaid (VOR, NDB)
Fix

Horizontal Profiles

Position Reports

Time Latitude Longitude Heading Altitude Ground
Speed
05-Sep-18 11:17 35.047008 -106.614010 310 5362ft 0kts
05-Sep-18 11:18 35.047008 -106.614010 310 5362ft 0kts
05-Sep-18 11:19 35.047008 -106.614010 310 5362ft 0kts
05-Sep-18 11:20 35.047008 -106.614010 310 5362ft 0kts
05-Sep-18 11:21 35.047008 -106.614010 310 5362ft 0kts
05-Sep-18 11:22 35.047008 -106.614010 310 5362ft 0kts
05-Sep-18 11:23 35.047008 -106.614010 310 5362ft 0kts
05-Sep-18 11:24 35.047008 -106.614010 310 5362ft 0kts
05-Sep-18 11:25 35.047008 -106.614010 310 5362ft 0kts
05-Sep-18 11:26 35.047008 -106.614010 310 5362ft 0kts
05-Sep-18 11:27 35.047008 -106.614010 310 5362ft 0kts
05-Sep-18 11:28 35.047008 -106.614010 310 5362ft 0kts
05-Sep-18 11:29 35.047008 -106.614010 310 5362ft 0kts
05-Sep-18 11:30 35.047008 -106.614010 310 5362ft 0kts
05-Sep-18 11:31 35.047008 -106.614010 310 5362ft 0kts
05-Sep-18 11:32 35.047008 -106.614010 310 5362ft 0kts
05-Sep-18 11:34 35.047008 -106.614010 310 5362ft 0kts
05-Sep-18 11:35 35.047008 -106.614010 310 5362ft 0kts
05-Sep-18 11:36 35.047008 -106.614010 310 5362ft 0kts
05-Sep-18 11:37 35.047008 -106.614010 310 5362ft 0kts
05-Sep-18 11:38 35.047008 -106.614010 310 5362ft 0kts
05-Sep-18 11:39 35.047008 -106.614010 310 5362ft 0kts
05-Sep-18 11:48 35.047008 -106.614010 310 5362ft 0kts
05-Sep-18 11:49 35.047008 -106.614010 310 5362ft 0kts
05-Sep-18 11:50 35.047008 -106.614010 310 5362ft 0kts
05-Sep-18 11:51 35.047008 -106.614010 310 5362ft 0kts
05-Sep-18 11:52 35.047008 -106.614010 310 5362ft 0kts
05-Sep-18 11:53 35.047008 -106.614010 310 5362ft 0kts
05-Sep-18 11:54 35.047008 -106.614010 310 5362ft 0kts
05-Sep-18 11:55 35.047008 -106.614010 310 5362ft 0kts
05-Sep-18 11:56 35.047008 -106.614010 310 5362ft 0kts
05-Sep-18 11:57 35.047008 -106.614010 310 5362ft 0kts
05-Sep-18 11:58 35.047008 -106.614009 310 5362ft 0kts
05-Sep-18 11:59 35.046734 -106.613555 278 5362ft 2kts
05-Sep-18 12:00 35.047025 -106.613091 182 5362ft 1kts
05-Sep-18 12:01 35.047080 -106.613092 181 5362ft 0kts
05-Sep-18 12:02 35.047080 -106.613092 181 5362ft 0kts
05-Sep-18 12:03 35.047080 -106.613092 181 5362ft 0kts
05-Sep-18 12:04 35.046355 -106.613142 190 5362ft 5kts
05-Sep-18 12:05 35.045560 -106.614894 272 5362ft 5kts
05-Sep-18 12:06 35.045538 -106.617772 269 5362ft 9kts
05-Sep-18 12:07 35.045590 -106.620553 271 5362ft 6kts
05-Sep-18 12:08 35.044417 -106.621113 123 5362ft 6kts
05-Sep-18 12:09 35.044159 -106.592387 91 5507ft 169kts
05-Sep-18 12:10 35.046564 -106.529465 64 7280ft 218kts
05-Sep-18 12:11 35.097455 -106.543255 283 9028ft 268kts
05-Sep-18 12:12 35.097272 -106.641668 265 10601ft 332kts
05-Sep-18 12:13 35.091847 -106.755651 267 13559ft 346kts
05-Sep-18 12:14 35.107586 -106.873915 276 16708ft 362kts
05-Sep-18 12:15 35.093359 -106.995013 253 19684ft 369kts
05-Sep-18 12:16 35.068177 -107.119205 253 22350ft 381kts
05-Sep-18 12:17 35.042374 -107.246163 253 24877ft 392kts
05-Sep-18 12:18 35.033282 -107.380927 264 27164ft 406kts
05-Sep-18 12:19 35.029079 -107.519725 264 28898ft 410kts
05-Sep-18 12:20 35.024804 -107.655492 263 30568ft 397kts
05-Sep-18 12:21 35.020346 -107.788704 263 31918ft 391kts
05-Sep-18 12:22 35.015792 -107.920063 263 33148ft 386kts
05-Sep-18 12:23 35.011156 -108.049675 263 34266ft 381kts
05-Sep-18 12:24 35.006408 -108.178335 263 35218ft 378kts
05-Sep-18 12:25 35.001580 -108.305705 263 36111ft 376kts
05-Sep-18 12:26 34.996636 -108.432624 263 36883ft 375kts
05-Sep-18 12:27 34.991568 -108.559514 263 37564ft 375kts
05-Sep-18 12:28 34.986412 -108.685222 262 38164ft 375kts
05-Sep-18 12:29 34.980864 -108.813778 262 38204ft 387kts
05-Sep-18 12:30 34.975004 -108.946477 262 38192ft 399kts
05-Sep-18 12:31 34.968791 -109.083848 263 38175ft 411kts
05-Sep-18 12:32 34.943606 -109.218623 244 38164ft 415kts
05-Sep-18 12:33 34.896195 -109.347727 244 38158ft 417kts
05-Sep-18 12:34 34.849071 -109.475890 244 38163ft 415kts
05-Sep-18 12:35 34.801987 -109.603680 244 38309ft 416kts
05-Sep-18 12:36 34.755134 -109.730304 244 38318ft 415kts
05-Sep-18 12:37 34.708449 -109.855929 244 38338ft 416kts
05-Sep-18 12:38 34.660896 -109.983601 244 37708ft 414kts
05-Sep-18 12:39 34.613670 -110.110015 244 36719ft 413kts
05-Sep-18 12:40 34.566020 -110.237222 244 34373ft 414kts
05-Sep-18 12:41 34.518819 -110.362749 244 32377ft 411kts
05-Sep-18 12:42 34.472148 -110.486415 244 30361ft 398kts
05-Sep-18 12:43 34.426639 -110.606503 244 28541ft 391kts
05-Sep-18 12:44 34.382037 -110.723679 243 26746ft 382kts
05-Sep-18 12:45 34.328468 -110.830742 226 24965ft 371kts
05-Sep-18 12:46 34.258440 -110.920818 226 23154ft 364kts
05-Sep-18 12:47 34.189889 -111.008926 226 21346ft 355kts
05-Sep-18 12:48 34.123925 -111.093671 226 19523ft 340kts
05-Sep-18 12:48 34.070554 -111.162137 226 18025ft 336kts
05-Sep-18 12:50 33.996726 -111.256680 226 15908ft 327kts
05-Sep-18 12:51 33.935303 -111.335189 226 14106ft 320kts
05-Sep-18 12:51 33.884932 -111.399374 226 12644ft 314kts
05-Sep-18 12:53 33.806493 -111.469891 215 11100ft 297kts
05-Sep-18 12:54 33.739766 -111.526672 215 9640ft 292kts
05-Sep-18 12:54 33.685369 -111.573129 215 8600ft 282kts
05-Sep-18 12:55 33.624810 -111.624592 214 8147ft 250kts
05-Sep-18 12:56 33.570103 -111.670235 214 7425ft 232kts
05-Sep-18 12:57 33.517280 -111.714640 214 5705ft 232kts
05-Sep-18 12:58 33.466000 -111.759648 228 4546ft 225kts
05-Sep-18 12:59 33.441385 -111.820703 265 3720ft 192kts
05-Sep-18 13:00 33.440587 -111.880779 269 2953ft 164kts
05-Sep-18 13:01 33.440693 -111.931641 269 2158ft 150kts
05-Sep-18 13:02 33.440851 -111.981345 269 1344ft 150kts
05-Sep-18 13:03 33.440830 -112.015308 270 1139ft 27kts
05-Sep-18 13:04 33.439330 -112.017753 169 1139ft 7kts
05-Sep-18 13:05 33.438993 -112.014611 90 1139ft 11kts
05-Sep-18 13:06 33.438999 -112.010413 90 1139ft 13kts
05-Sep-18 13:07 33.438214 -112.007360 180 1139ft 9kts
05-Sep-18 13:08 33.437336 -112.008154 268 1139ft 0kts
05-Sep-18 13:09 33.437336 -112.008154 268 1139ft 0kts

Navigation Log

Ident Type
Flight plan parsing failed, navigation log unavailable